Fecha, hora, temperatura, viento dirección y velocidad, humedad y presión.

  • 23-01-2020 21:00:00 | 8.30°C | Este |5.00 km/h | 74.00% | 951.20 hPa
  • 23-01-2020 20:00:00 | 8.40°C | Nordeste |3.00 km/h | 75.00% | 950.90 hPa
  • 23-01-2020 19:00:00 | 8.60°C | Nordeste |3.00 km/h | 74.00% | 950.30 hPa
  • 23-01-2020 18:00:00 | 9.50°C | Nordeste |5.00 km/h | 70.00% | 950.10 hPa
  • 23-01-2020 17:00:00 | 10.80°C | Este |5.00 km/h | 65.00% | 949.80 hPa
  • 23-01-2020 16:00:00 | 11.40°C | Este |6.00 km/h | 60.00% | 949.80 hPa
  • 23-01-2020 15:00:00 | 10.70°C | Sudeste |4.00 km/h | 64.00% | 950.00 hPa
  • 23-01-2020 14:00:00 | 10.30°C | Este |5.00 km/h | 64.00% | 950.40 hPa
  • 23-01-2020 13:00:00 | 9.30°C | Nordeste |6.00 km/h | 68.00% | 951.20 hPa
  • 23-01-2020 12:00:00 | 7.70°C | Norte |4.00 km/h | 73.00% | 951.70 hPa
  • 23-01-2020 11:00:00 | 5.60°C | Sudoeste |2.00 km/h | 82.00% | 951.90 hPa
  • 23-01-2020 10:00:00 | 2.40°C | Calma |0.00 km/h | 95.00% | 951.70 hPa
  • 23-01-2020 08:00:00 | 0.00°C | Noroeste |5.00 km/h | 93.00% | 950.40 hPa
  • 23-01-2020 08:00:00 | 0.00°C | Noroeste |5.00 km/h | 93.00% | 950.40 hPa
  • 23-01-2020 07:00:00 | 0.60°C | Norte |5.00 km/h | 93.00% | 950.00 hPa
  • 23-01-2020 06:00:00 | 0.40°C | Nordeste |2.00 km/h | 92.00% | 950.00 hPa
  • 23-01-2020 05:00:00 | 1.50°C | Norte |3.00 km/h | 90.00% | 949.90 hPa
  • 23-01-2020 04:00:00 | 2.40°C | Norte |8.00 km/h | 88.00% | 950.40 hPa
  • 23-01-2020 03:00:00 | 2.70°C | Norte |10.00 km/h | 89.00% | 950.70 hPa
  • 23-01-2020 02:00:00 | 2.80°C | Noroeste |6.00 km/h | 86.00% | 951.00 hPa
  • 23-01-2020 01:00:00 | 3.60°C | Norte |3.00 km/h | 84.00% | 951.00 hPa
  • 23-01-2020 00:00:00 | 4.30°C | Norte |6.00 km/h | 84.00% | 950.70 hPa
  • 22-01-2020 23:00:00 | 5.50°C | Norte |10.00 km/h | 80.00% | 950.50 hPa
  • 22-01-2020 22:00:00 | 6.00°C | Norte |9.00 km/h | 77.00% | 950.20 hPa
    • diseño web asturias Información sobre el estado de las mareas, altura de la marejada, temperatura del agua y otros datos de Gijón en Asturias.

      Surf Gijón